createdAt,value
2019-02-21T00:00:10.536Z,19.93
2019-02-21T00:02:40.067Z,23.80
2019-02-21T00:05:07.610Z,21.03
2019-02-21T00:07:35.229Z,21.90
2019-02-21T00:10:02.854Z,24.83
2019-02-21T00:12:30.893Z,20.80
2019-02-21T00:14:58.547Z,25.87
2019-02-21T00:17:26.087Z,24.33
2019-02-21T00:19:53.564Z,22.93
2019-02-21T00:22:21.068Z,22.93
2019-02-21T00:24:48.506Z,26.00
2019-02-21T00:27:16.086Z,21.10
2019-02-21T00:29:43.471Z,26.80
2019-02-21T00:32:10.893Z,25.62
2019-02-21T00:34:40.733Z,22.60
2019-02-21T00:37:08.408Z,24.43
2019-02-21T00:39:35.909Z,25.07
2019-02-21T00:42:03.419Z,25.10
2019-02-21T00:44:30.930Z,26.17
2019-02-21T00:46:58.608Z,23.50
2019-02-21T00:49:26.847Z,25.47
2019-02-21T00:51:54.392Z,28.80
2019-02-21T00:54:22.059Z,26.87
2019-02-21T00:56:49.647Z,22.30
2019-02-21T00:59:17.104Z,24.90
2019-02-21T01:01:44.547Z,23.93
2019-02-21T01:04:12.552Z,21.90
2019-02-21T01:06:40.645Z,21.33
2019-02-21T01:09:08.215Z,25.47
2019-02-21T01:11:36.103Z,27.27
2019-02-21T01:14:03.647Z,23.53
2019-02-21T01:16:31.196Z,19.63
2019-02-21T01:18:58.747Z,22.60
2019-02-21T01:21:26.190Z,20.87
2019-02-21T01:23:53.942Z,24.13
2019-02-21T01:26:21.571Z,22.93
2019-02-21T01:28:49.050Z,21.67
2019-02-21T01:31:16.502Z,21.13
2019-02-21T01:33:43.975Z,21.57
2019-02-21T01:36:11.507Z,26.80
2019-02-21T01:38:39.795Z,23.53
2019-02-21T01:41:07.344Z,26.27
2019-02-21T01:43:34.897Z,18.73
2019-02-21T01:46:02.461Z,29.40
2019-02-21T01:48:29.975Z,23.00
2019-02-21T01:50:57.577Z,21.73
2019-02-21T01:53:25.051Z,25.03
2019-02-21T01:55:52.618Z,24.23
2019-02-21T01:58:20.227Z,23.73
2019-02-21T02:00:48.945Z,23.83
2019-02-21T02:03:16.358Z,26.27
2019-02-21T02:05:44.039Z,26.63
2019-02-21T02:08:11.523Z,24.03
2019-02-21T02:10:40.186Z,23.40
2019-02-21T02:13:07.703Z,23.67
2019-02-21T02:15:36.287Z,23.63
2019-02-21T02:18:03.767Z,22.70
2019-02-21T02:20:31.209Z,22.70
2019-02-21T02:22:58.654Z,19.43
2019-02-21T02:25:26.216Z,23.67
2019-02-21T02:27:53.718Z,23.73
2019-02-21T02:30:21.143Z,20.53
2019-02-21T02:32:48.773Z,23.10
2019-02-21T02:35:16.306Z,23.27
2019-02-21T02:37:43.791Z,25.33
2019-02-21T02:40:11.399Z,21.60
2019-02-21T02:42:39.635Z,22.47
2019-02-21T02:45:07.249Z,19.53
2019-02-21T02:47:34.820Z,22.03
2019-02-21T02:50:02.412Z,22.83
2019-02-21T02:52:31.275Z,21.13
2019-02-21T02:54:58.779Z,20.13
2019-02-21T02:57:26.361Z,23.03
2019-02-21T02:59:54.014Z,20.90
2019-02-21T03:02:21.516Z,24.27
2019-02-21T03:04:49.215Z,24.03
2019-02-21T03:07:16.668Z,22.97
2019-02-21T03:09:44.319Z,23.30
2019-02-21T03:12:12.573Z,23.33
2019-02-21T03:14:40.090Z,25.93
2019-02-21T03:17:07.559Z,23.30
2019-02-21T03:19:35.114Z,22.90
2019-02-21T03:22:02.737Z,24.87
2019-02-21T03:24:30.303Z,21.77
2019-02-21T03:26:57.818Z,21.67
2019-02-21T03:29:25.391Z,22.97
2019-02-21T03:34:54.148Z,22.07
2019-02-21T03:37:21.703Z,20.63
2019-02-21T03:39:49.323Z,22.20
2019-02-21T03:42:16.851Z,21.40
2019-02-21T03:44:44.472Z,21.50
2019-02-21T03:47:12.053Z,21.47
2019-02-21T03:49:39.629Z,21.73
2019-02-21T03:52:07.280Z,22.20
2019-02-21T03:54:35.013Z,26.40
2019-02-21T03:57:02.456Z,21.43
2019-02-21T03:59:29.984Z,23.63
2019-02-21T04:02:05.360Z,22.40
2019-02-21T04:04:26.765Z,21.80
2019-02-21T04:06:54.356Z,22.43
2019-02-21T04:09:21.766Z,25.67
2019-02-21T04:11:49.328Z,25.50
2019-02-21T04:14:17.102Z,25.50
2019-02-21T04:16:44.754Z,23.03
2019-02-21T04:19:12.488Z,22.53
2019-02-21T04:21:39.955Z,22.33
2019-02-21T04:24:07.603Z,23.93
2019-02-21T04:26:35.178Z,23.23
2019-02-21T04:29:03.729Z,23.27
2019-02-21T04:31:31.164Z,26.87
2019-02-21T04:33:59.998Z,24.53
2019-02-21T04:36:27.431Z,23.23
2019-02-21T04:38:54.880Z,24.53
2019-02-21T04:41:22.382Z,24.70
2019-02-21T04:43:49.991Z,22.60
2019-02-21T04:46:17.539Z,24.67
2019-02-21T04:48:44.883Z,23.77
2019-02-21T04:51:12.500Z,26.53
2019-02-21T04:53:39.928Z,23.03
2019-02-21T04:56:07.342Z,22.47
2019-02-21T04:58:34.829Z,31.20
2019-02-21T05:01:02.594Z,30.60
2019-02-21T05:03:30.320Z,23.87
2019-02-21T05:05:57.935Z,28.37
2019-02-21T05:08:25.493Z,28.13
2019-02-21T05:10:53.003Z,27.80
2019-02-21T05:13:20.546Z,26.70
2019-02-21T05:15:48.250Z,26.87
2019-02-21T05:18:15.836Z,29.23
2019-02-21T05:20:43.375Z,28.70
2019-02-21T05:23:10.826Z,28.07
2019-02-21T05:25:38.315Z,28.73
2019-02-21T05:28:25.653Z,26.10
2019-02-21T05:30:55.694Z,25.63
2019-02-21T05:33:39.645Z,30.90
2019-02-21T05:36:21.832Z,29.13
2019-02-21T05:39:07.679Z,29.40
2019-02-21T05:41:52.732Z,31.00
2019-02-21T05:44:39.843Z,27.10
2019-02-21T05:47:39.019Z,25.73
2019-02-21T05:50:21.563Z,29.37
2019-02-21T05:53:07.208Z,24.43
2019-02-21T05:55:40.513Z,29.60
2019-02-21T05:58:13.384Z,27.67
2019-02-21T06:00:49.190Z,28.00
2019-02-21T06:03:36.068Z,29.13
2019-02-21T06:06:21.562Z,25.37
2019-02-21T06:09:14.494Z,25.95
2019-02-21T06:11:56.506Z,27.83
2019-02-21T06:14:42.038Z,25.73
2019-02-21T06:17:16.835Z,25.90
2019-02-21T06:20:04.194Z,27.67
2019-02-21T06:22:38.134Z,24.60
2019-02-21T06:25:25.073Z,25.63
2019-02-21T06:28:00.974Z,26.67
2019-02-21T06:30:43.310Z,25.60
2019-02-21T06:33:10.726Z,27.80
2019-02-21T06:35:38.218Z,27.20
2019-02-21T06:38:05.764Z,25.20
2019-02-21T06:40:33.200Z,27.30
2019-02-21T06:43:00.752Z,27.40
2019-02-21T06:45:28.336Z,30.97
2019-02-21T06:47:55.919Z,28.60
2019-02-21T06:50:26.689Z,30.63
2019-02-21T06:52:52.727Z,27.03
2019-02-21T06:55:20.680Z,29.37
2019-02-21T06:57:48.430Z,26.57
2019-02-21T07:00:16.000Z,28.20
2019-02-21T07:02:43.759Z,27.57
2019-02-21T07:05:11.271Z,31.50
2019-02-21T07:07:38.888Z,30.30
2019-02-21T07:10:06.390Z,31.40
2019-02-21T07:12:33.796Z,26.23
2019-02-21T07:15:01.344Z,28.20
2019-02-21T07:17:29.114Z,28.80
2019-02-21T07:19:56.599Z,29.80
2019-02-21T07:22:24.164Z,25.43
2019-02-21T07:24:55.649Z,27.30
2019-02-21T07:27:23.311Z,27.10
2019-02-21T07:29:50.844Z,26.70
2019-02-21T07:32:18.385Z,30.93
2019-02-21T07:34:46.091Z,27.13
2019-02-21T07:37:18.519Z,30.33
2019-02-21T07:39:43.310Z,26.80
2019-02-21T07:42:10.710Z,25.63
2019-02-21T07:44:38.218Z,27.37
2019-02-21T07:47:05.732Z,28.13
2019-02-21T07:49:33.273Z,29.00
2019-02-21T07:52:00.952Z,27.07
2019-02-21T07:54:28.445Z,25.90
2019-02-21T07:56:55.904Z,27.47
2019-02-21T07:59:23.450Z,29.83
2019-02-21T08:01:50.994Z,28.67
2019-02-21T08:04:18.487Z,30.40
2019-02-21T08:06:45.988Z,23.80
2019-02-21T08:09:13.451Z,26.57
2019-02-21T08:11:41.041Z,29.07
2019-02-21T08:14:08.739Z,27.40
2019-02-21T08:16:36.219Z,29.07
2019-02-21T08:19:03.891Z,26.83
2019-02-21T08:21:33.744Z,26.43
2019-02-21T08:24:01.439Z,25.90
2019-02-21T08:26:28.888Z,28.47
2019-02-21T08:28:56.371Z,28.70
2019-02-21T08:31:24.254Z,28.13
2019-02-21T08:34:09.435Z,29.40
2019-02-21T08:36:37.142Z,25.63
2019-02-21T08:39:07.534Z,24.87
2019-02-21T08:41:35.792Z,27.83
2019-02-21T08:44:03.255Z,25.23
2019-02-21T08:46:30.702Z,27.13
2019-02-21T08:48:58.106Z,25.90
2019-02-21T08:51:25.631Z,27.03
2019-02-21T08:53:53.042Z,25.03
2019-02-21T08:56:20.639Z,26.60
2019-02-21T08:58:48.158Z,28.03
2019-02-21T09:01:15.717Z,26.60
2019-02-21T09:03:43.304Z,28.03
2019-02-21T09:06:10.919Z,27.47
2019-02-21T09:08:38.433Z,25.63
2019-02-21T09:11:06.194Z,25.87
2019-02-21T09:13:33.936Z,27.25
2019-02-21T09:16:01.471Z,30.47
2019-02-21T09:18:29.046Z,26.97
2019-02-21T09:20:56.587Z,26.63
2019-02-21T09:23:24.083Z,27.97
2019-02-21T09:25:51.479Z,25.00
2019-02-21T09:28:18.918Z,29.40
2019-02-21T09:30:46.376Z,30.20
2019-02-21T09:33:17.449Z,25.20
2019-02-21T09:35:43.141Z,26.63
2019-02-21T09:38:10.838Z,24.90
2019-02-21T09:40:38.154Z,27.93
2019-02-21T09:43:05.623Z,26.40
2019-02-21T09:45:33.183Z,28.03
2019-02-21T09:48:00.712Z,25.43
2019-02-21T09:50:28.197Z,24.67
2019-02-21T09:52:55.746Z,23.93
2019-02-21T09:55:23.448Z,24.30
2019-02-21T09:57:50.979Z,24.53
2019-02-21T10:00:18.827Z,24.70
2019-02-21T10:02:46.349Z,23.83
2019-02-21T10:05:13.723Z,26.27
2019-02-21T10:07:41.231Z,25.87
2019-02-21T10:10:11.695Z,26.70
2019-02-21T10:12:39.342Z,23.27
2019-02-21T10:15:06.979Z,28.27
2019-02-21T10:17:34.546Z,28.53
2019-02-21T10:20:04.136Z,28.03
2019-02-21T10:22:31.394Z,24.70
2019-02-21T10:24:58.939Z,25.63
2019-02-21T10:27:26.246Z,27.47
2019-02-21T10:29:53.754Z,24.17
2019-02-21T10:32:21.216Z,25.10
2019-02-21T10:34:48.676Z,25.70
2019-02-21T10:37:16.110Z,26.73
2019-02-21T10:39:43.504Z,23.53
2019-02-21T10:42:11.035Z,25.10
2019-02-21T10:44:38.551Z,23.70
2019-02-21T10:47:06.091Z,24.10
2019-02-21T10:49:34.516Z,26.43
2019-02-21T10:52:03.101Z,24.63
2019-02-21T10:54:30.547Z,26.20
2019-02-21T10:56:58.296Z,25.17
2019-02-21T10:59:25.811Z,27.70
2019-02-21T11:01:53.401Z,26.40
2019-02-21T11:04:20.952Z,28.00
2019-02-21T11:06:48.659Z,26.90
2019-02-21T11:09:20.008Z,28.70
2019-02-21T11:11:50.219Z,25.33
2019-02-21T11:14:17.511Z,25.67
2019-02-21T11:16:45.167Z,25.43
2019-02-21T11:19:12.455Z,22.70
2019-02-21T11:21:39.920Z,25.10
2019-02-21T11:24:07.382Z,25.97
2019-02-21T11:26:34.866Z,22.13
2019-02-21T11:29:02.307Z,23.40
2019-02-21T11:31:30.022Z,23.33
2019-02-21T11:33:57.458Z,24.00
2019-02-21T11:36:25.043Z,23.73
2019-02-21T11:38:52.520Z,23.00
2019-02-21T11:41:20.124Z,23.73
2019-02-21T11:43:48.284Z,23.60
2019-02-21T11:46:15.636Z,24.43
2019-02-21T11:48:43.191Z,21.97
2019-02-21T11:51:10.978Z,24.95
2019-02-21T11:53:38.492Z,25.87
2019-02-21T11:56:05.939Z,27.98
2019-02-21T11:58:33.388Z,25.50
2019-02-21T12:01:00.886Z,22.43
2019-02-21T12:03:28.382Z,25.07
2019-02-21T12:05:56.031Z,25.00
2019-02-21T12:08:23.579Z,25.93
2019-02-21T12:10:51.139Z,25.13
2019-02-21T12:13:18.651Z,21.90
2019-02-21T12:15:46.203Z,23.20
2019-02-21T12:18:13.833Z,21.97
2019-02-21T12:20:41.420Z,25.70
2019-02-21T12:23:08.902Z,26.33
2019-02-21T12:25:36.334Z,22.43
2019-02-21T12:28:03.827Z,24.40
2019-02-21T12:30:33.282Z,22.90
2019-02-21T12:33:01.499Z,24.97
2019-02-21T12:35:30.282Z,21.57
2019-02-21T12:37:58.126Z,22.20
2019-02-21T12:40:25.818Z,22.75
2019-02-21T12:42:53.233Z,23.53
2019-02-21T12:45:20.983Z,24.50
2019-02-21T12:47:53.618Z,23.13
2019-02-21T12:50:19.120Z,24.07
2019-02-21T12:52:46.644Z,23.17
2019-02-21T12:55:26.451Z,24.53
2019-02-21T12:57:43.826Z,24.87
2019-02-21T13:00:13.343Z,23.87
2019-02-21T13:02:40.909Z,26.80
2019-02-21T13:05:08.457Z,24.77
2019-02-21T13:07:36.234Z,24.43
2019-02-21T13:10:05.617Z,24.37
2019-02-21T13:12:33.198Z,33.83
2019-02-21T13:15:00.715Z,25.93
2019-02-21T13:17:28.364Z,24.63
2019-02-21T13:19:55.929Z,26.40
2019-02-21T13:22:23.487Z,25.60
2019-02-21T13:24:50.971Z,27.60
2019-02-21T13:27:18.472Z,29.57
2019-02-21T13:29:45.842Z,25.80
2019-02-21T13:32:13.394Z,24.23
2019-02-21T13:34:40.947Z,25.03
2019-02-21T13:37:09.518Z,24.10
2019-02-21T13:39:37.032Z,26.73
2019-02-21T13:42:04.331Z,22.93
2019-02-21T13:44:31.749Z,24.73
2019-02-21T13:46:59.639Z,24.47
2019-02-21T13:49:27.230Z,25.20
2019-02-21T13:51:54.751Z,24.73
2019-02-21T13:54:22.330Z,25.77
2019-02-21T13:56:49.752Z,25.27
2019-02-21T13:59:17.190Z,25.43
2019-02-21T14:01:44.716Z,25.83
2019-02-21T14:04:12.311Z,27.70
2019-02-21T14:06:39.871Z,27.63
2019-02-21T14:09:07.586Z,24.70
2019-02-21T14:11:35.879Z,26.40
2019-02-21T14:14:03.431Z,26.03
2019-02-21T14:16:30.812Z,26.33
2019-02-21T14:18:58.406Z,25.43
2019-02-21T14:21:25.978Z,26.07
2019-02-21T14:23:53.530Z,29.57
2019-02-21T14:26:21.347Z,27.47
2019-02-21T14:28:48.966Z,28.90
2019-02-21T14:31:16.548Z,29.53
2019-02-21T14:33:44.128Z,29.50
2019-02-21T14:36:15.547Z,32.10
2019-02-21T14:38:40.984Z,29.37
2019-02-21T14:41:08.466Z,35.68
2019-02-21T14:43:37.239Z,32.65
2019-02-21T14:46:04.786Z,32.97
2019-02-21T14:48:32.359Z,32.47
2019-02-21T14:50:59.854Z,31.60
2019-02-21T14:53:27.674Z,32.77
2019-02-21T14:55:55.263Z,34.27
2019-02-21T14:58:22.798Z,32.67
2019-02-21T15:00:50.268Z,29.60
2019-02-21T15:03:21.874Z,30.97
2019-02-21T15:05:47.126Z,31.80
2019-02-21T15:08:21.786Z,34.80
2019-02-21T15:10:48.428Z,30.93
2019-02-21T15:13:15.896Z,32.27
2019-02-21T15:15:43.430Z,29.60
2019-02-21T15:18:11.337Z,33.17
2019-02-21T15:20:39.040Z,34.20
2019-02-21T15:23:06.744Z,30.03
2019-02-21T15:25:34.337Z,31.03
2019-02-21T15:28:01.806Z,30.80
2019-02-21T15:30:29.565Z,30.30
2019-02-21T15:32:57.147Z,33.43
2019-02-21T15:35:24.697Z,35.20
2019-02-21T15:37:52.394Z,30.93
2019-02-21T15:40:19.845Z,34.73
2019-02-21T15:42:47.418Z,33.20
2019-02-21T15:45:22.825Z,30.97
2019-02-21T15:47:46.563Z,31.70
2019-02-21T15:50:14.102Z,31.00
2019-02-21T15:52:42.203Z,29.47
2019-02-21T15:55:12.752Z,28.93
2019-02-21T15:57:40.002Z,31.47
2019-02-21T16:00:09.569Z,32.60
2019-02-21T16:02:37.203Z,35.27
2019-02-21T16:05:04.967Z,37.27
2019-02-21T16:07:32.525Z,32.00
2019-02-21T16:10:00.095Z,28.97
2019-02-21T16:12:27.705Z,28.47
2019-02-21T16:14:55.816Z,28.17
2019-02-21T16:17:23.291Z,29.03
2019-02-21T16:19:51.838Z,27.83
2019-02-21T16:22:19.384Z,27.57
2019-02-21T16:24:48.075Z,26.17
2019-02-21T16:27:15.668Z,25.13
2019-02-21T16:29:43.183Z,25.87
2019-02-21T16:32:10.852Z,27.33
2019-02-21T16:34:38.356Z,27.30
2019-02-21T16:37:05.938Z,28.23
2019-02-21T16:39:33.404Z,28.03
2019-02-21T16:42:00.953Z,30.95
2019-02-21T16:44:28.360Z,29.13
2019-02-21T16:46:55.767Z,35.68
2019-02-21T16:49:24.520Z,27.87
2019-02-21T16:51:52.999Z,30.07
2019-02-21T16:54:20.578Z,29.67
2019-02-21T16:56:48.256Z,28.33
2019-02-21T16:59:15.925Z,26.83
2019-02-21T17:01:43.508Z,29.33
2019-02-21T17:04:11.096Z,28.10
2019-02-21T17:06:38.650Z,27.80
2019-02-21T17:09:06.522Z,28.87
2019-02-21T17:11:36.426Z,28.80
2019-02-21T17:14:04.005Z,29.07
2019-02-21T17:16:31.549Z,27.73
2019-02-21T17:19:00.350Z,28.97
2019-02-21T17:21:28.114Z,28.00
2019-02-21T17:23:55.709Z,30.90
2019-02-21T17:26:23.406Z,29.97
2019-02-21T17:28:51.064Z,35.93
2019-02-21T17:31:18.535Z,29.77
2019-02-21T17:33:46.064Z,27.37
2019-02-21T17:36:13.573Z,28.53
2019-02-21T17:38:41.144Z,27.77
2019-02-21T17:41:09.824Z,28.80
2019-02-21T17:43:37.411Z,28.27
2019-02-21T17:46:04.846Z,29.67
2019-02-21T17:48:32.326Z,29.77
2019-02-21T17:50:59.768Z,28.17
2019-02-21T17:53:27.312Z,26.70
2019-02-21T17:55:54.908Z,27.10
2019-02-21T17:58:22.356Z,30.13
2019-02-21T18:00:49.876Z,28.00
2019-02-21T18:03:17.315Z,29.30
2019-02-21T18:05:44.858Z,28.00
2019-02-21T18:08:15.642Z,29.20
2019-02-21T18:10:43.388Z,30.45
2019-02-21T18:13:10.973Z,29.03
2019-02-21T18:15:38.580Z,29.37
2019-02-21T18:18:06.256Z,30.17
2019-02-21T18:20:33.935Z,28.43
2019-02-21T18:23:01.466Z,31.03
2019-02-21T18:25:32.438Z,29.17
2019-02-21T18:27:59.792Z,28.40
2019-02-21T18:30:27.239Z,28.20
2019-02-21T18:32:54.830Z,29.47
2019-02-21T18:35:22.323Z,28.50
2019-02-21T18:37:52.666Z,29.10
2019-02-21T18:40:21.043Z,29.47
2019-02-21T18:42:49.861Z,29.50
2019-02-21T18:45:17.512Z,27.10
2019-02-21T18:47:44.991Z,27.83
2019-02-21T18:50:13.037Z,30.33
2019-02-21T18:52:40.567Z,29.77
2019-02-21T18:55:08.524Z,33.90
2019-02-21T18:57:35.970Z,29.07
2019-02-21T19:00:05.636Z,36.73
2019-02-21T19:02:34.881Z,28.97
2019-02-21T19:05:02.466Z,26.93
2019-02-21T19:07:30.079Z,29.23
2019-02-21T19:09:57.702Z,31.53
2019-02-21T19:12:25.218Z,28.93
2019-02-21T19:14:52.944Z,28.90
2019-02-21T19:17:20.419Z,29.03
2019-02-21T19:19:47.933Z,30.93
2019-02-21T19:22:15.340Z,29.30
2019-02-21T19:24:42.666Z,30.20
2019-02-21T19:27:10.156Z,30.77
2019-02-21T19:29:37.563Z,29.27
2019-02-21T19:32:05.090Z,31.47
2019-02-21T19:34:32.654Z,31.43
2019-02-21T19:37:00.278Z,30.60
2019-02-21T19:39:27.762Z,30.70
2019-02-21T19:41:55.214Z,29.90
2019-02-21T19:44:22.719Z,32.33
2019-02-21T19:46:50.102Z,30.97
2019-02-21T19:49:17.634Z,34.40
2019-02-21T19:51:45.227Z,34.43
2019-02-21T19:54:12.726Z,33.13
2019-02-21T19:56:40.226Z,30.17
2019-02-21T19:59:07.663Z,35.67
2019-02-21T20:01:35.218Z,29.97
2019-02-21T20:04:02.661Z,37.10
2019-02-21T20:06:32.471Z,33.40
2019-02-21T20:08:59.790Z,32.23
2019-02-21T20:11:27.438Z,32.70
2019-02-21T20:13:55.014Z,26.60
2019-02-21T20:16:22.575Z,28.93
2019-02-21T20:18:50.050Z,30.10
2019-02-21T20:21:17.730Z,30.77
2019-02-21T20:23:45.386Z,30.20
2019-02-21T20:26:18.377Z,26.63
2019-02-21T20:28:42.267Z,27.83
2019-02-21T20:31:09.817Z,28.17
2019-02-21T20:33:37.498Z,30.60
2019-02-21T20:36:05.302Z,29.37
2019-02-21T20:38:32.959Z,27.53
2019-02-21T20:41:00.518Z,24.73
2019-02-21T20:43:28.236Z,25.47
2019-02-21T20:45:55.843Z,24.47
2019-02-21T20:48:23.386Z,24.80
2019-02-21T20:50:56.893Z,25.37
2019-02-21T20:53:20.433Z,29.20
2019-02-21T20:55:47.955Z,25.50
2019-02-21T20:58:15.423Z,25.53
2019-02-21T21:00:43.275Z,24.90
2019-02-21T21:03:11.005Z,26.13
2019-02-21T21:05:38.687Z,25.23
2019-02-21T21:08:06.130Z,24.13
2019-02-21T21:10:33.703Z,28.00
2019-02-21T21:13:01.277Z,25.60
2019-02-21T21:15:29.050Z,26.93
2019-02-21T21:17:56.714Z,25.00
2019-02-21T21:20:25.883Z,25.13
2019-02-21T21:23:22.334Z,24.90
2019-02-21T21:25:50.210Z,25.03
2019-02-21T21:28:17.738Z,27.30
2019-02-21T21:30:45.588Z,24.40
2019-02-21T21:33:13.171Z,24.63
2019-02-21T21:35:40.793Z,28.30
2019-02-21T21:38:08.463Z,28.60
2019-02-21T21:40:36.017Z,29.40
2019-02-21T21:43:03.552Z,31.53
2019-02-21T21:45:31.143Z,28.00
2019-02-21T21:47:58.834Z,29.50
2019-02-21T21:50:26.517Z,32.50
2019-02-21T21:52:54.213Z,34.05
2019-02-21T21:55:21.809Z,31.60
2019-02-21T21:57:49.471Z,36.95
2019-02-21T22:00:19.219Z,34.73
2019-02-21T22:02:47.026Z,29.63
2019-02-21T22:05:14.740Z,33.50
2019-02-21T22:07:42.361Z,32.90
2019-02-21T22:10:10.802Z,37.90
2019-02-21T22:12:38.391Z,37.40
2019-02-21T22:15:06.899Z,37.10
2019-02-21T22:17:34.482Z,36.60
2019-02-21T22:20:02.145Z,38.97
2019-02-21T22:22:30.138Z,39.07
2019-02-21T22:24:57.740Z,37.23
2019-02-21T22:27:25.329Z,38.90
2019-02-21T22:29:52.864Z,40.63
2019-02-21T22:32:20.457Z,37.83
2019-02-21T22:34:48.015Z,36.13
2019-02-21T22:37:15.603Z,40.70
2019-02-21T22:39:44.232Z,40.73
2019-02-21T22:42:11.881Z,41.10
2019-02-21T22:44:39.523Z,43.37
2019-02-21T22:47:07.113Z,39.40
2019-02-21T22:49:34.712Z,43.70
2019-02-21T22:52:02.470Z,42.30
2019-02-21T22:54:30.010Z,42.37
2019-02-21T22:56:57.870Z,46.10
2019-02-21T22:59:25.528Z,43.30
2019-02-21T23:01:55.051Z,38.77
2019-02-21T23:05:04.819Z,39.67
2019-02-21T23:07:49.641Z,40.90
2019-02-21T23:10:17.160Z,41.77
2019-02-21T23:12:44.712Z,44.03
2019-02-21T23:15:14.386Z,41.80
2019-02-21T23:17:41.988Z,40.10
2019-02-21T23:20:09.588Z,43.70
2019-02-21T23:22:37.259Z,41.17
2019-02-21T23:25:06.438Z,42.53
2019-02-21T23:27:33.880Z,46.03
2019-02-21T23:30:01.330Z,43.17
2019-02-21T23:32:29.997Z,44.17
2019-02-21T23:34:58.624Z,40.03
2019-02-21T23:37:26.773Z,40.40
2019-02-21T23:39:57.148Z,43.53
2019-02-21T23:42:24.743Z,40.00
2019-02-21T23:44:53.632Z,43.17
2019-02-21T23:47:21.690Z,41.03
2019-02-21T23:49:49.397Z,44.77
2019-02-21T23:52:40.037Z,39.30
2019-02-21T23:55:13.110Z,44.03
